Time;durP1;ratioP1;P1;durP2;ratioP2;P2;SDS_P1;SDS_P2;PMS_P1;PMS_P2;Temp;Humidity;BMP_temperature;BMP_pressure;BME280_temperature;BME280_humidity;BME280_pressure;Samples;Min_cycle;Max_cycle;Signal;HPM_P1;HPM_P2
2022/08/22 00:01:36;;;;;;;;;;;;;;;18.13;52.03809;101756;;;;-75
2022/08/22 00:06:10;;;;;;;3.7;1.7;;;;;;;;;;;;;-75
2022/08/22 00:06:34;;;;;;;;;;;;;;;18.1;52.22852;101758.2;;;;-75
2022/08/22 00:11:40;;;;;;;;;;;;;;;18.08;52.13477;101755;;;;-76
2022/08/22 00:16:34;;;;;;;;;;;;;;;18.05;52.1084;101758.1;;;;-75
2022/08/22 00:21:34;;;;;;;;;;;;;;;18.04;52.12891;101763.2;;;;-75
2022/08/22 00:26:38;;;;;;;;;;;;;;;18.01;52.17188;101768.6;;;;-75
2022/08/22 00:31:34;;;;;;;;;;;;;;;18;52.19434;101773.3;;;;-76
2022/08/22 00:36:11;;;;;;;4.6;1.6;;;;;;;;;;;;;-75
2022/08/22 00:36:33;;;;;;;;;;;;;;;17.99;52.13379;101774.9;;;;-75
2022/08/22 00:41:43;;;;;;;;;;;;;;;17.96;52.13086;101770.8;;;;-75
2022/08/22 00:46:43;;;;;;;;;;;;;;;17.95;52.20996;101777.2;;;;-74
2022/08/22 00:51:42;;;;;;;;;;;;;;;17.95;52.1875;101778.3;;;;-77
2022/08/22 00:56:47;;;;;;;;;;;;;;;17.93;52.15137;101777;;;;-74
2022/08/22 01:01:34;;;;;;;;;;;;;;;17.93;52.17285;101773.9;;;;-75
2022/08/22 01:06:19;;;;;;;3.9;1.5;;;;;;;;;;;;;-74
2022/08/22 01:06:35;;;;;;;;;;;;;;;17.92;52.1377;101775.8;;;;-75
2022/08/22 01:11:43;;;;;;;;;;;;;;;17.92;52.2168;101775.1;;;;-74
2022/08/22 01:16:43;;;;;;;;;;;;;;;17.91;52.21582;101779.9;;;;-75
2022/08/22 01:21:42;;;;;;;;;;;;;;;17.92;52.11621;101782.4;;;;-74
2022/08/22 01:26:42;;;;;;;;;;;;;;;17.91;52.19336;101778.4;;;;-75
2022/08/22 01:31:51;;;;;;;;;;;;;;;17.91;52.21582;101767.6;;;;-74
2022/08/22 01:36:27;;;;;;;4.2;1.5;;;;;;;;;;;;;-75
2022/08/22 01:36:49;;;;;;;;;;;;;;;17.9;52.10254;101768.5;;;;-73
2022/08/22 01:41:42;;;;;;;;;;;;;;;17.87;52.09961;101769.6;;;;-74
2022/08/22 01:46:46;;;;;;;;;;;;;;;17.87;52.16602;101777.7;;;;-75
2022/08/22 01:51:39;;;;;;;;;;;;;;;17.86;52.21094;101780.1;;;;-76
2022/08/22 01:56:35;;;;;;;;;;;;;;;17.84;52.28711;101775.1;;;;-76
2022/08/22 02:01:36;;;;;;;;;;;;;;;17.83;52.17285;101775;;;;-75
2022/08/22 02:06:18;;;;;;;4.6;1.5;;;;;;;;;;;;;-73
2022/08/22 02:06:35;;;;;;;;;;;;;;;17.82;52.23926;101772;;;;-75
2022/08/22 02:11:41;;;;;;;;;;;;;;;17.82;52.14844;101769.4;;;;-74
2022/08/22 02:16:38;;;;;;;;;;;;;;;17.79;52.22461;101762.4;;;;-75
2022/08/22 02:21:35;;;;;;;;;;;;;;;17.77;52.18848;101766.5;;;;-76
2022/08/22 02:26:40;;;;;;;;;;;;;;;17.77;52.22266;101766.6;;;;-74
2022/08/22 02:31:38;;;;;;;;;;;;;;;17.74;52.21973;101756.9;;;;-74
2022/08/22 02:36:22;;;;;;;4.3;1.6;;;;;;;;;;;;;-74
2022/08/22 02:36:34;;;;;;;;;;;;;;;17.71;52.1582;101752.8;;;;-74
2022/08/22 02:41:34;;;;;;;;;;;;;;;17.69;52.19043;101750.3;;;;-75
2022/08/22 02:46:33;;;;;;;;;;;;;;;17.68;52.23438;101747.9;;;;-75
2022/08/22 02:51:36;;;;;;;;;;;;;;;17.65;52.15234;101745;;;;-75
2022/08/22 02:56:35;;;;;;;;;;;;;;;17.64;52.26367;101744.7;;;;-72
2022/08/22 03:01:37;;;;;;;;;;;;;;;17.59;52.29199;101736.9;;;;-76
2022/08/22 03:06:31;;;;;;;4.7;1.5;;;;;;;;;;;;;-76
2022/08/22 03:06:45;;;;;;;;;;;;;;;17.53;52.27441;101736.5;;;;-73
2022/08/22 03:11:32;;;;;;;;;;;;;;;17.56;52.50391;101742.4;;;;-74
2022/08/22 03:16:36;;;;;;;;;;;;;;;17.53;52.41016;101738.6;;;;-75
2022/08/22 03:21:34;;;;;;;;;;;;;;;17.51;52.62207;101730.5;;;;-75
2022/08/22 03:26:35;;;;;;;;;;;;;;;17.48;52.66406;101728.8;;;;-75
2022/08/22 03:31:32;;;;;;;;;;;;;;;17.44;52.72754;101726.4;;;;-75
2022/08/22 03:36:31;;;;;;;3.8;1.5;;;;;;;;;;;;;-75
2022/08/22 03:36:41;;;;;;;;;;;;;;;17.41;52.80469;101713.7;;;;-75
2022/08/22 03:41:44;;;;;;;;;;;;;;;17.38;52.7998;101710.6;;;;-75
2022/08/22 03:46:45;;;;;;;;;;;;;;;17.36;52.95605;101708.9;;;;-74
2022/08/22 03:51:43;;;;;;;;;;;;;;;17.3;52.92676;101707.6;;;;-75
2022/08/22 03:56:43;;;;;;;;;;;;;;;17.26;53.0127;101708.5;;;;-75
2022/08/22 04:01:42;;;;;;;;;;;;;;;17.25;52.94336;101712.1;;;;-74
2022/08/22 04:06:32;;;;;;;3.1;1.5;;;;;;;;;;;;;-77
2022/08/22 04:06:58;;;;;;;;;;;;;;;17.19;52.94727;101705.7;;;;-73
2022/08/22 04:11:51;;;;;;;;;;;;;;;17.21;53.11914;101707.8;;;;-75
2022/08/22 04:16:40;;;;;;;;;;;;;;;17.22;53.01855;101706.5;;;;-75
2022/08/22 04:21:44;;;;;;;;;;;;;;;17.22;52.89355;101716.5;;;;-75
2022/08/22 04:26:40;;;;;;;;;;;;;;;17.22;53.08691;101721.5;;;;-75
2022/08/22 04:31:35;;;;;;;;;;;;;;;17.23;52.97461;101715.1;;;;-74
2022/08/22 04:36:28;;;;;;;4.3;1.5;;;;;;;;;;;;;-74
2022/08/22 04:36:42;;;;;;;;;;;;;;;17.25;52.78418;101714.7;;;;-72
2022/08/22 04:41:35;;;;;;;;;;;;;;;17.29;52.5498;101725.8;;;;-74
2022/08/22 04:46:38;;;;;;;;;;;;;;;17.3;52.58691;101730;;;;-75
2022/08/22 04:51:36;;;;;;;;;;;;;;;17.31;52.47363;101732.1;;;;-75
2022/08/22 04:56:39;;;;;;;;;;;;;;;17.3;52.43945;101746.3;;;;-74
2022/08/22 05:01:41;;;;;;;;;;;;;;;17.3;52.39355;101746.9;;;;-76
2022/08/22 05:06:31;;;;;;;3.5;1.5;;;;;;;;;;;;;-74
2022/08/22 05:06:42;;;;;;;;;;;;;;;17.31;52.38281;101751.5;;;;-72
2022/08/22 05:11:33;;;;;;;;;;;;;;;17.31;52.32813;101752.3;;;;-75
2022/08/22 05:16:33;;;;;;;;;;;;;;;17.31;52.28125;101753;;;;-75
2022/08/22 05:21:34;;;;;;;;;;;;;;;17.34;52.27344;101761.4;;;;-75
2022/08/22 05:26:32;;;;;;;;;;;;;;;17.38;52.19922;101765.5;;;;-75
2022/08/22 05:31:33;;;;;;;;;;;;;;;17.41;52.07813;101768.2;;;;-77
2022/08/22 05:36:32;;;;;;;4.2;1.5;;;;;;;;;;;;;-76
2022/08/22 05:36:42;;;;;;;;;;;;;;;17.48;51.93848;101760.4;;;;-75
2022/08/22 05:41:32;;;;;;;;;;;;;;;17.55;51.70898;101764.7;;;;-75
2022/08/22 05:46:35;;;;;;;;;;;;;;;17.64;51.68457;101764;;;;-75
2022/08/22 05:51:39;;;;;;;;;;;;;;;17.74;51.56055;101771.4;;;;-75
2022/08/22 05:56:36;;;;;;;;;;;;;;;17.83;51.37793;101775.3;;;;-75
2022/08/22 06:01:35;;;;;;;;;;;;;;;17.94;51.44824;101777.8;;;;-75
2022/08/22 06:06:32;;;;;;;;;;;;;;;18.06;51.64355;101781.9;;;;-75
2022/08/22 06:06:45;;;;;;;2.8;1.3;;;;;;;;;;;;;-75
2022/08/22 06:11:32;;;;;;;;;;;;;;;18.21;51.87695;101783.3;;;;-75
2022/08/22 06:16:36;;;;;;;;;;;;;;;18.37;51.77148;101782.4;;;;-76
2022/08/22 06:21:35;;;;;;;;;;;;;;;18.57;51.83887;101785.8;;;;-75
2022/08/22 06:26:33;;;;;;;;;;;;;;;18.77;51.66992;101781.3;;;;-76
2022/08/22 06:31:33;;;;;;;;;;;;;;;19.1;51.54883;101785.8;;;;-76
2022/08/22 06:36:34;;;;;;;;;;;;;;;19.48;50.88672;101780.6;;;;-76
2022/08/22 06:36:44;;;;;;;5.5;1.5;;;;;;;;;;;;;-76
2022/08/22 06:41:33;;;;;;;;;;;;;;;19.95;50.74609;101776.7;;;;-76
2022/08/22 06:46:32;;;;;;;;;;;;;;;20.48;50.24805;101771.5;;;;-75
2022/08/22 06:51:31;;;;;;;;;;;;;;;20.98;49.74316;101769.7;;;;-75
2022/08/22 06:56:32;;;;;;;;;;;;;;;21.45;49.32617;101779.1;;;;-77
2022/08/22 07:01:35;;;;;;;;;;;;;;;21.75;49.03906;101774.6;;;;-75
2022/08/22 07:06:32;;;;;;;;;;;;;;;22.07;48.66113;101772.7;;;;-77
2022/08/22 07:06:42;;;;;;;6;1.5;;;;;;;;;;;;;-77
2022/08/22 07:11:32;;;;;;;;;;;;;;;22.47;47.91309;101778.5;;;;-76
2022/08/22 07:16:36;;;;;;;;;;;;;;;22.87;47.38086;101769.1;;;;-76
2022/08/22 07:21:33;;;;;;;;;;;;;;;23.17;47.14844;101769.6;;;;-75
2022/08/22 07:26:35;;;;;;;;;;;;;;;23.45;47.16699;101763.3;;;;-76
2022/08/22 07:31:35;;;;;;;;;;;;;;;23.71;46.71094;101758.8;;;;-75
2022/08/22 07:36:32;;;;;;;;;;;;;;;24.06;46.40137;101750;;;;-75
2022/08/22 07:36:45;;;;;;;4.8;1.5;;;;;;;;;;;;;-75
2022/08/22 07:41:37;;;;;;;;;;;;;;;24.34;46.12891;101747;;;;-75
2022/08/22 07:46:35;;;;;;;;;;;;;;;24.58;45.93555;101744;;;;-77
2022/08/22 07:51:35;;;;;;;;;;;;;;;24.82;45.625;101731.2;;;;-76
2022/08/22 07:56:33;;;;;;;;;;;;;;;25.06;45.44141;101731.3;;;;-75
2022/08/22 08:01:31;;;;;;;;;;;;;;;25.23;45.00879;101725.3;;;;-74
2022/08/22 08:06:31;;;;;;;;;;;;;;;25.49;44.65234;101726.1;;;;-74
2022/08/22 08:06:44;;;;;;;4.7;1.5;;;;;;;;;;;;;-77
2022/08/22 08:11:33;;;;;;;;;;;;;;;25.73;44.13184;101722.7;;;;-76
2022/08/22 08:16:35;;;;;;;;;;;;;;;25.95;43.65527;101722.1;;;;-75
2022/08/22 08:21:36;;;;;;;;;;;;;;;26.11;43.20703;101719.7;;;;-76
2022/08/22 08:26:34;;;;;;;;;;;;;;;26.25;43.03613;101720.5;;;;-75
2022/08/22 08:31:34;;;;;;;;;;;;;;;26.51;42.63086;101726.6;;;;-75
2022/08/22 08:36:36;;;;;;;;;;;;;;;26.81;42.26367;101736.6;;;;-74
2022/08/22 08:36:51;;;;;;;4.6;1.6;;;;;;;;;;;;;-76
2022/08/22 08:41:49;;;;;;;;;;;;;;;27.04;41.94922;101732.4;;;;-75
2022/08/22 08:46:42;;;;;;;;;;;;;;;27.27;41.78516;101731.9;;;;-75
2022/08/22 08:51:44;;;;;;;;;;;;;;;27.5;41.52637;101723.8;;;;-76
2022/08/22 08:56:37;;;;;;;;;;;;;;;27.76;41.31738;101734.7;;;;-78
2022/08/22 09:01:40;;;;;;;;;;;;;;;28.04;40.95996;101736.4;;;;-76
2022/08/22 09:06:47;;;;;;;;;;;;;;;28.3;40.70215;101732.3;;;;-75
2022/08/22 09:07:21;;;;;;;3.4;1.3;;;;;;;;;;;;;-75
2022/08/22 09:11:49;;;;;;;;;;;;;;;28.53;40.44336;101734.4;;;;-74
2022/08/22 09:16:37;;;;;;;;;;;;;;;28.71;40.07422;101724.9;;;;-74
2022/08/22 09:21:42;;;;;;;;;;;;;;;28.92;40.01172;101715.6;;;;-76
2022/08/22 09:26:38;;;;;;;;;;;;;;;29.1;39.4209;101722.3;;;;-76
2022/08/22 09:31:37;;;;;;;;;;;;;;;29.31;39.16895;101720.4;;;;-76
2022/08/22 09:36:35;;;;;;;;;;;;;;;29.52;38.80176;101713.5;;;;-75
2022/08/22 09:37:10;;;;;;;6.1;1.4;;;;;;;;;;;;;-75
2022/08/22 09:41:38;;;;;;;;;;;;;;;29.69;38.39551;101708.5;;;;-74
2022/08/22 09:46:35;;;;;;;;;;;;;;;29.9;38.0498;101708.2;;;;-75
2022/08/22 09:51:37;;;;;;;;;;;;;;;30.07;37.75977;101704.6;;;;-75
2022/08/22 09:56:38;;;;;;;;;;;;;;;30.38;37.83301;101708.3;;;;-76
2022/08/22 10:01:33;;;;;;;;;;;;;;;30.64;37.35059;101697.1;;;;-75
2022/08/22 10:06:34;;;;;;;;;;;;;;;30.97;37.31836;101687.5;;;;-75
2022/08/22 10:07:04;;;;;;;3.9;1.4;;;;;;;;;;;;;-76
2022/08/22 10:11:32;;;;;;;;;;;;;;;31.26;36.48535;101688.3;;;;-75
2022/08/22 10:16:36;;;;;;;;;;;;;;;31.47;36.43164;101681.8;;;;-75
2022/08/22 10:21:36;;;;;;;;;;;;;;;31.67;35.55273;101688.5;;;;-74
2022/08/22 10:26:37;;;;;;;;;;;;;;;31.8;35.37598;101689.7;;;;-75
2022/08/22 10:31:36;;;;;;;;;;;;;;;31.97;35.53027;101681.9;;;;-76
2022/08/22 10:36:35;;;;;;;;;;;;;;;32.17;35.42773;101686.4;;;;-75
2022/08/22 10:37:13;;;;;;;4.5;1.5;;;;;;;;;;;;;-76
2022/08/22 10:41:37;;;;;;;;;;;;;;;32.35;35.23047;101687.9;;;;-75
2022/08/22 10:46:34;;;;;;;;;;;;;;;32.57;34.41016;101687.1;;;;-74
2022/08/22 10:51:46;;;;;;;;;;;;;;;32.78;34.08398;101689.1;;;;-75
2022/08/22 10:56:34;;;;;;;;;;;;;;;32.98;33.91016;101692.4;;;;-75
2022/08/22 11:01:33;;;;;;;;;;;;;;;33.15;33.93457;101683.3;;;;-76
2022/08/22 11:06:33;;;;;;;;;;;;;;;33.37;33.5498;101691.5;;;;-76
2022/08/22 11:07:18;;;;;;;3.7;1.4;;;;;;;;;;;;;-74
2022/08/22 11:11:38;;;;;;;;;;;;;;;33.48;34.25488;101682.9;;;;-76
2022/08/22 11:16:38;;;;;;;;;;;;;;;33.61;34.33398;101676.9;;;;-76
2022/08/22 11:21:36;;;;;;;;;;;;;;;33.82;34.35059;101681.8;;;;-75
2022/08/22 11:26:36;;;;;;;;;;;;;;;33.96;34.64551;101678.4;;;;-76
2022/08/22 11:31:37;;;;;;;;;;;;;;;34.07;34.7832;101663.9;;;;-76
2022/08/22 11:36:38;;;;;;;;;;;;;;;34.2;33.92969;101666.2;;;;-76
2022/08/22 11:37:22;;;;;;;4.6;1.3;;;;;;;;;;;;;-75
2022/08/22 11:41:34;;;;;;;;;;;;;;;34.32;34.42383;101667;;;;-76
2022/08/22 11:46:32;;;;;;;;;;;;;;;34.37;34.60547;101667.3;;;;-77
2022/08/22 11:51:39;;;;;;;;;;;;;;;34.34;34.51953;101668.1;;;;-75
2022/08/22 11:56:34;;;;;;;;;;;;;;;34.02;34.25977;101666.6;;;;-76
2022/08/22 12:01:38;;;;;;;;;;;;;;;33.68;35.17871;101663.3;;;;-77
2022/08/22 12:06:50;;;;;;;;;;;;;;;33.46;35.20996;101660.5;;;;-75
2022/08/22 12:07:29;;;;;;;3;1.5;;;;;;;;;;;;;-74
2022/08/22 12:11:38;;;;;;;;;;;;;;;33.44;35.39746;101657.6;;;;-75
2022/08/22 12:16:35;;;;;;;;;;;;;;;33.57;34.49707;101655.6;;;;-76
2022/08/22 12:21:54;;;;;;;;;;;;;;;33.72;34.39063;101649.2;;;;-76
2022/08/22 12:26:35;;;;;;;;;;;;;;;33.84;34.53027;101644.4;;;;-77
2022/08/22 12:31:36;;;;;;;;;;;;;;;34.03;34.96973;101640;;;;-76
2022/08/22 12:36:45;;;;;;;;;;;;;;;34.31;34.32813;101633.8;;;;-75
2022/08/22 12:37:32;;;;;;;3.7;1.6;;;;;;;;;;;;;-75
2022/08/22 12:41:38;;;;;;;;;;;;;;;34.51;34.1543;101634.9;;;;-75
2022/08/22 12:46:38;;;;;;;;;;;;;;;34.73;33.69629;101623.2;;;;-75
2022/08/22 12:51:35;;;;;;;;;;;;;;;34.88;33.67188;101616.2;;;;-76
2022/08/22 12:56:36;;;;;;;;;;;;;;;34.96;33.06152;101617.8;;;;-74
2022/08/22 13:01:37;;;;;;;;;;;;;;;35.06;33.47168;101617.5;;;;-75
2022/08/22 13:06:44;;;;;;;;;;;;;;;35.11;33.28613;101607.8;;;;-75
2022/08/22 13:07:37;;;;;;;4.6;1.8;;;;;;;;;;;;;-77
2022/08/22 13:11:32;;;;;;;;;;;;;;;35.21;33.71973;101604.2;;;;-76
2022/08/22 13:16:39;;;;;;;;;;;;;;;35.47;34.0957;101597.3;;;;-76
2022/08/22 13:21:36;;;;;;;;;;;;;;;35.73;32.33301;101601;;;;-77
2022/08/22 13:26:31;;;;;;;;;;;;;;;35.84;33.12598;101595;;;;-74
2022/08/22 13:31:32;;;;;;;;;;;;;;;35.9;32.27344;101595.1;;;;-74
2022/08/22 13:36:32;;;;;;;;;;;;;;;35.93;32.27637;101585.8;;;;-76
2022/08/22 13:37:43;;;;;;;4.8;1.6;;;;;;;;;;;;;-75
2022/08/22 13:41:33;;;;;;;;;;;;;;;35.86;31.29688;101582.1;;;;-75
2022/08/22 13:46:32;;;;;;;;;;;;;;;35.83;32.20996;101575.5;;;;-75
2022/08/22 13:51:33;;;;;;;;;;;;;;;35.87;32.2832;101574.3;;;;-74
2022/08/22 13:56:32;;;;;;;;;;;;;;;35.85;31.64063;101565.9;;;;-74
2022/08/22 14:01:42;;;;;;;;;;;;;;;35.82;31.65039;101570.1;;;;-75
2022/08/22 14:06:36;;;;;;;;;;;;;;;35.8;31.96973;101567.8;;;;-76
2022/08/22 14:07:52;;;;;;;4.8;1.7;;;;;;;;;;;;;-76
2022/08/22 14:11:34;;;;;;;;;;;;;;;35.81;32.16113;101563.2;;;;-76
2022/08/22 14:16:36;;;;;;;;;;;;;;;35.91;31.83496;101568.1;;;;-76
2022/08/22 14:21:34;;;;;;;;;;;;;;;35.94;32.27734;101562.2;;;;-75
2022/08/22 14:26:34;;;;;;;;;;;;;;;36.03;31.02246;101558.7;;;;-76
2022/08/22 14:31:31;;;;;;;;;;;;;;;36.03;31.37988;101563.8;;;;-75
2022/08/22 14:36:32;;;;;;;;;;;;;;;36;31.50879;101555.8;;;;-75
2022/08/22 14:37:55;;;;;;;4.6;1.6;;;;;;;;;;;;;-76
2022/08/22 14:41:33;;;;;;;;;;;;;;;35.94;32.26563;101547.6;;;;-76
2022/08/22 14:46:34;;;;;;;;;;;;;;;35.86;30.71484;101551.2;;;;-75
2022/08/22 14:51:31;;;;;;;;;;;;;;;35.76;31.30176;101546.9;;;;-78
2022/08/22 14:56:32;;;;;;;;;;;;;;;35.65;30.92578;101548.2;;;;-75
2022/08/22 15:01:32;;;;;;;;;;;;;;;35.52;31.21484;101541.7;;;;-75
2022/08/22 15:06:38;;;;;;;;;;;;;;;35.4;31.0166;101544.3;;;;-75
2022/08/22 15:08:01;;;;;;;3.7;1.6;;;;;;;;;;;;;-77
2022/08/22 15:11:33;;;;;;;;;;;;;;;35.32;31.62793;101539.7;;;;-75
2022/08/22 15:16:33;;;;;;;;;;;;;;;35.22;31.84668;101542;;;;-75
2022/08/22 15:21:33;;;;;;;;;;;;;;;35.18;31.35742;101538.2;;;;-77
2022/08/22 15:26:34;;;;;;;;;;;;;;;35.03;31.01465;101534.3;;;;-76
2022/08/22 15:31:31;;;;;;;;;;;;;;;34.86;31.5498;101533.3;;;;-76
2022/08/22 15:36:31;;;;;;;;;;;;;;;34.74;31.73047;101528.5;;;;-76
2022/08/22 15:38:08;;;;;;;4.3;1.7;;;;;;;;;;;;;-76
2022/08/22 15:41:42;;;;;;;;;;;;;;;34.65;31.75977;101523;;;;-76
2022/08/22 15:46:36;;;;;;;;;;;;;;;34.53;31.33691;101521.7;;;;-76
2022/08/22 15:51:43;;;;;;;;;;;;;;;34.35;31.34766;101523.2;;;;-77
2022/08/22 15:56:33;;;;;;;;;;;;;;;34.16;31.48926;101511.4;;;;-76
2022/08/22 16:01:41;;;;;;;;;;;;;;;34.02;31.65723;101504.5;;;;-77
2022/08/22 16:06:43;;;;;;;;;;;;;;;33.88;31.8252;101497.9;;;;-75
2022/08/22 16:08:15;;;;;;;4;1.7;;;;;;;;;;;;;-76
2022/08/22 16:11:36;;;;;;;;;;;;;;;33.79;31.81738;101499.3;;;;-74
2022/08/22 16:16:42;;;;;;;;;;;;;;;33.67;31.65723;101500.5;;;;-76
2022/08/22 16:21:42;;;;;;;;;;;;;;;33.49;31.7627;101493.1;;;;-76
2022/08/22 16:26:40;;;;;;;;;;;;;;;33.28;32.17285;101487.2;;;;-75
2022/08/22 16:31:34;;;;;;;;;;;;;;;33.11;32.06641;101490;;;;-75
2022/08/22 16:36:45;;;;;;;;;;;;;;;32.9;32.14648;101479.6;;;;-76
2022/08/22 16:38:28;;;;;;;3.8;1.7;;;;;;;;;;;;;-75
2022/08/22 16:41:33;;;;;;;;;;;;;;;32.72;32.22754;101479.3;;;;-76
2022/08/22 16:46:40;;;;;;;;;;;;;;;32.55;32.60547;101477.3;;;;-75
2022/08/22 16:51:31;;;;;;;;;;;;;;;32.38;32.52246;101471.9;;;;-76
2022/08/22 16:56:36;;;;;;;;;;;;;;;32.12;32.43262;101480.7;;;;-76
2022/08/22 17:01:40;;;;;;;;;;;;;;;31.78;32.31445;101472.8;;;;-75
2022/08/22 17:06:43;;;;;;;;;;;;;;;31.47;32.65723;101473.4;;;;-75
2022/08/22 17:08:49;;;;;;;4.1;1.7;;;;;;;;;;;;;-76
2022/08/22 17:11:40;;;;;;;;;;;;;;;31.23;32.80469;101471.4;;;;-75
2022/08/22 17:16:38;;;;;;;;;;;;;;;30.96;32.9375;101472.2;;;;-75
2022/08/22 17:21:35;;;;;;;;;;;;;;;30.71;33.22559;101471.5;;;;-75
2022/08/22 17:26:38;;;;;;;;;;;;;;;30.48;33.78418;101478;;;;-76
2022/08/22 17:31:35;;;;;;;;;;;;;;;30.26;34.00195;101474.5;;;;-76
2022/08/22 17:36:36;;;;;;;;;;;;;;;30.04;34.12598;101487.6;;;;-75
2022/08/22 17:38:43;;;;;;;4.4;1.8;;;;;;;;;;;;;-77
2022/08/22 17:41:40;;;;;;;;;;;;;;;29.81;34.72949;101487.9;;;;-76
2022/08/22 17:46:38;;;;;;;;;;;;;;;29.58;34.88672;101487.2;;;;-76
2022/08/22 17:51:35;;;;;;;;;;;;;;;29.32;34.85547;101493.1;;;;-75
2022/08/22 17:56:35;;;;;;;;;;;;;;;29.04;35.11523;101495.1;;;;-74
2022/08/22 18:01:42;;;;;;;;;;;;;;;28.72;35.33594;101492.9;;;;-76
2022/08/22 18:06:33;;;;;;;;;;;;;;;28.42;35.5918;101493.2;;;;-76
2022/08/22 18:08:37;;;;;;;3.9;1.9;;;;;;;;;;;;;-74
2022/08/22 18:11:35;;;;;;;;;;;;;;;28.11;36.08105;101491.8;;;;-72
2022/08/22 18:16:34;;;;;;;;;;;;;;;27.83;36.35059;101487.6;;;;-75
2022/08/22 18:21:35;;;;;;;;;;;;;;;27.53;36.83887;101489.5;;;;-76
2022/08/22 18:26:34;;;;;;;;;;;;;;;27.25;37.18848;101491.2;;;;-75
2022/08/22 18:31:41;;;;;;;;;;;;;;;26.98;37.49121;101495.5;;;;-74
2022/08/22 18:36:33;;;;;;;;;;;;;;;26.71;38.05078;101495.8;;;;-77
2022/08/22 18:38:43;;;;;;;5.4;2.1;;;;;;;;;;;;;-75
2022/08/22 18:41:35;;;;;;;;;;;;;;;26.44;38.39941;101502.8;;;;-73
2022/08/22 18:46:44;;;;;;;;;;;;;;;26.18;38.94629;101505.6;;;;-76
2022/08/22 18:51:34;;;;;;;;;;;;;;;25.93;39.26074;101509.5;;;;-74
2022/08/22 18:56:47;;;;;;;;;;;;;;;25.7;39.53027;101516;;;;-75
2022/08/22 19:01:39;;;;;;;;;;;;;;;25.47;40.03125;101515.2;;;;-75
2022/08/22 19:06:51;;;;;;;;;;;;;;;25.24;40.41602;101517;;;;-75
2022/08/22 19:09:01;;;;;;;5.2;1.9;;;;;;;;;;;;;-79
2022/08/22 19:11:42;;;;;;;;;;;;;;;25.04;40.6416;101519.3;;;;-76
2022/08/22 19:16:44;;;;;;;;;;;;;;;24.85;40.99414;101519.7;;;;-74
2022/08/22 19:26:33;;;;;;;;;;;;;;;24.47;41.6875;101524.9;;;;-74
2022/08/22 19:31:43;;;;;;;;;;;;;;;24.3;41.95996;101521.8;;;;-75
2022/08/22 19:36:37;;;;;;;;;;;;;;;24.15;42.25781;101526.2;;;;-74
2022/08/22 19:39:05;;;;;;;4.6;2.2;;;;;;;;;;;;;-76
2022/08/22 19:41:49;;;;;;;;;;;;;;;23.99;42.94629;101517.9;;;;-76
2022/08/22 19:46:37;;;;;;;;;;;;;;;23.87;42.63379;101518.9;;;;-75
2022/08/22 19:51:31;;;;;;;;;;;;;;;23.74;43.33789;101513.5;;;;-75
2022/08/22 19:56:37;;;;;;;;;;;;;;;23.61;43.36035;101511.6;;;;-75
2022/08/22 20:01:42;;;;;;;;;;;;;;;23.48;43.87695;101510.6;;;;-75
2022/08/22 20:06:35;;;;;;;;;;;;;;;23.38;44.29395;101513.9;;;;-75
2022/08/22 20:09:01;;;;;;;4.2;2.1;;;;;;;;;;;;;-76
2022/08/22 20:11:36;;;;;;;;;;;;;;;23.28;44.35352;101512.9;;;;-77
2022/08/22 20:16:41;;;;;;;;;;;;;;;23.19;44.51563;101509.1;;;;-75
2022/08/22 20:21:50;;;;;;;;;;;;;;;23.09;44.63281;101514;;;;-77
2022/08/22 20:26:31;;;;;;;;;;;;;;;23.02;44.88965;101510.6;;;;-76
2022/08/22 20:31:31;;;;;;;;;;;;;;;22.93;44.97363;101506.4;;;;-75
2022/08/22 20:36:34;;;;;;;;;;;;;;;22.87;45.04785;101506.4;;;;-76
2022/08/22 20:38:57;;;;;;;3.9;2.2;;;;;;;;;;;;;-76
2022/08/22 20:41:36;;;;;;;;;;;;;;;22.79;45.03906;101511.3;;;;-77
2022/08/22 20:46:38;;;;;;;;;;;;;;;22.73;45.4248;101506.6;;;;-76
2022/08/22 20:51:32;;;;;;;;;;;;;;;22.66;45.6709;101502.1;;;;-76
2022/08/22 20:56:48;;;;;;;;;;;;;;;22.59;45.38672;101511.9;;;;-76
2022/08/22 21:01:31;;;;;;;;;;;;;;;22.52;45.49512;101513;;;;-76
2022/08/22 21:06:37;;;;;;;;;;;;;;;22.47;45.58203;101517.2;;;;-77
2022/08/22 21:11:43;;;;;;;;;;;;;;;22.38;45.68848;101514.9;;;;-73
2022/08/22 21:16:34;;;;;;;;;;;;;;;22.32;45.95703;101510.9;;;;-76
2022/08/22 21:21:32;;;;;;;;;;;;;;;22.24;46.00586;101508.1;;;;-77
2022/08/22 21:26:31;;;;;;;;;;;;;;;22.16;45.97559;101506.2;;;;-75
2022/08/22 21:31:32;;;;;;;;;;;;;;;22.1;46.15234;101505.5;;;;-76
2022/08/22 21:36:32;;;;;;;;;;;;;;;22.05;46.30664;101503.3;;;;-74
2022/08/22 21:39:04;;;;;;;6;2.2;;;;;;;;;;;;;-76
2022/08/22 21:41:33;;;;;;;;;;;;;;;22.01;46.63672;101501.7;;;;-77
2022/08/22 21:46:31;;;;;;;;;;;;;;;21.99;46.81836;101501.1;;;;-75
2022/08/22 21:51:44;;;;;;;;;;;;;;;21.99;46.57715;101499.9;;;;-77
2022/08/22 21:56:34;;;;;;;;;;;;;;;21.99;46.55469;101498.8;;;;-75
2022/08/22 22:01:35;;;;;;;;;;;;;;;21.99;46.6582;101495.5;;;;-77
2022/08/22 22:06:31;;;;;;;;;;;;;;;22;46.49707;101492.9;;;;-74
2022/08/22 22:09:05;;;;;;;3.6;2;;;;;;;;;;;;;-75
2022/08/22 22:11:31;;;;;;;;;;;;;;;22;46.42871;101494;;;;-76
2022/08/22 22:16:32;;;;;;;;;;;;;;;21.98;46.55371;101495.1;;;;-76
2022/08/22 22:21:31;;;;;;;;;;;;;;;21.96;46.79199;101495.9;;;;-75
2022/08/22 22:26:31;;;;;;;;;;;;;;;21.93;46.93848;101493.6;;;;-75
2022/08/22 22:31:31;;;;;;;;;;;;;;;21.93;46.7998;101500.7;;;;-75
2022/08/22 22:36:35;;;;;;;;;;;;;;;21.92;47.23535;101502.6;;;;-77
2022/08/22 22:39:11;;;;;;;5;2.3;;;;;;;;;;;;;-75
2022/08/22 22:41:31;;;;;;;;;;;;;;;21.89;47.33496;101504.5;;;;-77
2022/08/22 22:46:31;;;;;;;;;;;;;;;21.88;47.4375;101501.2;;;;-76
2022/08/22 22:51:31;;;;;;;;;;;;;;;21.88;47.52832;101506.2;;;;-76
2022/08/22 22:56:31;;;;;;;;;;;;;;;21.87;47.74512;101505;;;;-75
2022/08/22 23:01:31;;;;;;;;;;;;;;;21.86;47.74414;101504.2;;;;-75
2022/08/22 23:06:32;;;;;;;;;;;;;;;21.82;47.74023;101509;;;;-75
2022/08/22 23:09:12;;;;;;;4.7;2.1;;;;;;;;;;;;;-76
2022/08/22 23:11:31;;;;;;;;;;;;;;;21.78;48.11328;101511.7;;;;-75
2022/08/22 23:16:31;;;;;;;;;;;;;;;21.74;48.41895;101508.9;;;;-74
2022/08/22 23:21:32;;;;;;;;;;;;;;;21.69;48.78125;101503.3;;;;-76
2022/08/22 23:26:33;;;;;;;;;;;;;;;21.66;48.70898;101499.5;;;;-75
2022/08/22 23:31:34;;;;;;;;;;;;;;;21.62;48.56641;101499.4;;;;-74
2022/08/22 23:36:31;;;;;;;;;;;;;;;21.55;48.60547;101491.9;;;;-76
2022/08/22 23:39:17;;;;;;;4.2;2.6;;;;;;;;;;;;;-75
2022/08/22 23:41:31;;;;;;;;;;;;;;;21.49;49.54883;101488.1;;;;-75
2022/08/22 23:46:31;;;;;;;;;;;;;;;21.43;49.81738;101490.3;;;;-74
2022/08/22 23:51:31;;;;;;;;;;;;;;;21.39;49.70996;101485.5;;;;-76
2022/08/22 23:56:34;;;;;;;;;;;;;;;21.34;50.02539;101483;;;;-73
